Time;durP1;ratioP1;P1;durP2;ratioP2;P2;SDS_P1;SDS_P2;PMS_P1;PMS_P2;Temp;Humidity;BMP_temperature;BMP_pressure;BME280_temperature;BME280_humidity;BME280_pressure;Samples;Min_cycle;Max_cycle;Signal;HPM_P1;HPM_P2
2023/02/28 00:01:15;;;;;;;4.72;0.70;;;0.40;99.70;;;;;;4953276;28;20566;-76
2023/02/28 00:03:41;;;;;;;5.18;1.02;;;0.40;99.90;;;;;;4974036;28;20066;-75
2023/02/28 00:06:09;;;;;;;1.48;0.55;;;0.40;99.90;;;;;;4973032;28;20636;-76
2023/02/28 00:08:36;;;;;;;1.30;1.20;;;0.40;99.90;;;;;;4962596;28;20030;-75
2023/02/28 00:11:11;;;;;;;2.08;0.47;;;0.20;99.90;;;;;;4956275;28;20035;-75
2023/02/28 00:13:48;;;;;;;0.88;0.50;;;0.20;99.90;;;;;;4961911;28;20129;-75
2023/02/28 00:16:18;;;;;;;0.30;0.30;;;0.20;99.90;;;;;;4956399;28;20109;-75
2023/02/28 00:18:45;;;;;;;0.80;0.68;;;0.20;99.90;;;;;;4973995;28;20030;-75
2023/02/28 00:21:11;;;;;;;2.17;0.80;;;0.10;99.90;;;;;;4972926;28;20030;-75
2023/02/28 00:23:37;;;;;;;1.02;0.73;;;0.20;99.90;;;;;;4961214;28;20035;-75
2023/02/28 00:26:03;;;;;;;6.88;0.98;;;0.10;99.90;;;;;;4971829;28;20038;-75
2023/02/28 00:28:29;;;;;;;1.30;0.93;;;0.20;99.90;;;;;;4955827;28;20521;-76
2023/02/28 00:30:57;;;;;;;0.52;0.40;;;0.20;99.90;;;;;;4959163;28;20039;-75
2023/02/28 00:33:22;;;;;;;0.43;0.30;;;0.20;99.90;;;;;;4973589;28;20058;-75
2023/02/28 00:35:48;;;;;;;0.32;0.32;;;0.20;99.90;;;;;;4973172;28;20061;-75
2023/02/28 00:38:15;;;;;;;0.63;0.52;;;0.20;99.90;;;;;;4973212;28;20031;-75
2023/02/28 00:40:41;;;;;;;0.93;0.40;;;0.10;99.90;;;;;;4955555;28;20030;-75
2023/02/28 00:43:07;;;;;;;0.60;0.60;;;0.10;99.90;;;;;;4973362;28;20493;-75
2023/02/28 00:45:33;;;;;;;0.88;0.50;;;0.10;99.90;;;;;;4972317;28;20030;-75
2023/02/28 00:47:58;;;;;;;0.65;0.47;;;0.00;99.90;;;;;;4972603;28;20503;-75
2023/02/28 00:50:24;;;;;;;1.55;1.08;;;0.00;99.90;;;;;;4972548;28;20046;-74
2023/02/28 00:52:50;;;;;;;1.00;0.65;;;-0.10;99.90;;;;;;4963657;28;20430;-74
2023/02/28 00:55:16;;;;;;;1.38;0.98;;;-0.10;99.90;;;;;;4972791;28;20033;-74
2023/02/28 00:57:42;;;;;;;2.92;0.88;;;-0.10;99.90;;;;;;4972991;28;20041;-74
2023/02/28 01:00:09;;;;;;;3.47;1.17;;;-0.10;99.90;;;;;;4972293;28;20031;-75
2023/02/28 01:02:34;;;;;;;0.90;0.75;;;-0.10;99.90;;;;;;4972811;28;20033;-75
2023/02/28 01:05:00;;;;;;;2.28;0.65;;;0.00;99.90;;;;;;4971014;28;20030;-75
2023/02/28 01:07:26;;;;;;;0.80;0.50;;;0.00;99.90;;;;;;4963398;28;20041;-75
2023/02/28 01:09:52;;;;;;;2.05;1.00;;;-0.10;99.90;;;;;;4972374;28;20041;-74
2023/02/28 01:12:17;;;;;;;1.20;0.95;;;-0.10;99.90;;;;;;4972747;28;20390;-75
2023/02/28 01:14:43;;;;;;;0.93;0.70;;;-0.10;99.90;;;;;;4954974;28;20042;-75
2023/02/28 01:17:09;;;;;;;0.52;0.50;;;-0.10;99.90;;;;;;4972956;28;20475;-74
2023/02/28 01:19:35;;;;;;;1.75;0.80;;;-0.10;99.90;;;;;;4954789;28;20042;-74
2023/02/28 01:22:05;;;;;;;0.85;0.60;;;-0.20;99.90;;;;;;4972215;28;20034;-75
2023/02/28 01:24:32;;;;;;;2.10;0.75;;;-0.30;99.90;;;;;;4954919;28;20031;-75
2023/02/28 01:26:58;;;;;;;1.40;1.13;;;-0.30;99.90;;;;;;4962744;28;20041;-74
2023/02/28 01:29:24;;;;;;;0.70;0.57;;;-0.30;99.90;;;;;;4971832;28;20422;-76
2023/02/28 01:31:50;;;;;;;3.22;0.93;;;-0.30;99.90;;;;;;4959956;28;20031;-74
2023/02/28 01:34:18;;;;;;;1.95;1.10;;;-0.40;99.90;;;;;;4952694;28;20121;-74
2023/02/28 01:36:45;;;;;;;2.15;1.65;;;-0.50;99.90;;;;;;4971957;28;20026;-75
2023/02/28 01:39:12;;;;;;;0.88;0.47;;;-0.50;99.90;;;;;;4955146;28;20027;-75
2023/02/28 01:41:39;;;;;;;1.90;0.85;;;-0.50;99.90;;;;;;4971776;28;20498;-74
2023/02/28 01:44:44;;;;;;;1.23;1.10;;;-0.60;99.90;;;;;;4940521;28;20117;-75
2023/02/28 01:47:10;;;;;;;1.35;0.88;;;-0.60;99.90;;;;;;4971090;28;20070;-75
2023/02/28 01:49:36;;;;;;;1.98;1.50;;;-0.60;99.90;;;;;;4954131;28;20483;-74
2023/02/28 01:52:02;;;;;;;1.45;0.95;;;-0.60;99.90;;;;;;4963104;28;20038;-75
2023/02/28 01:54:34;;;;;;;0.70;0.70;;;-0.60;99.90;;;;;;4954035;28;20089;-74
2023/02/28 01:57:14;;;;;;;1.58;1.23;;;-0.60;99.90;;;;;;4946762;28;20097;-75
2023/02/28 02:00:04;;;;;;;2.38;0.93;;;-0.60;99.90;;;;;;4971166;28;20050;-75
2023/02/28 02:02:31;;;;;;;2.80;1.17;;;-0.70;99.90;;;;;;4950638;28;20109;-74
2023/02/28 02:05:20;;;;;;;1.98;1.08;;;-0.70;99.90;;;;;;4961700;28;20038;-74
2023/02/28 02:07:52;;;;;;;1.30;0.77;;;-0.70;99.90;;;;;;4950146;28;20038;-74
2023/02/28 02:10:35;;;;;;;6.93;1.50;;;-0.70;99.90;;;;;;4968946;28;20109;-75
2023/02/28 02:13:32;;;;;;;0.73;0.60;;;-0.80;99.90;;;;;;4971677;28;20070;-75
2023/02/28 02:16:39;;;;;;;3.35;0.85;;;-0.80;99.90;;;;;;4971303;28;20496;-75
2023/02/28 02:19:15;;;;;;;1.27;0.98;;;-0.70;99.90;;;;;;4971293;28;20523;-75
2023/02/28 02:22:08;;;;;;;1.02;1.00;;;-0.80;99.90;;;;;;4970967;28;20085;-75
2023/02/28 02:25:10;;;;;;;3.30;1.05;;;-0.80;99.90;;;;;;4949159;28;20447;-75
2023/02/28 02:28:28;;;;;;;1.52;0.70;;;-0.90;99.90;;;;;;4882348;29;20035;-75
2023/02/28 02:31:37;;;;;;;0.38;0.38;;;-0.90;99.90;;;;;;4964318;28;20372;-75
2023/02/28 02:34:40;;;;;;;0.68;0.60;;;-1.00;99.90;;;;;;4958622;28;20026;-75
2023/02/28 02:37:37;;;;;;;2.83;1.38;;;-1.00;99.90;;;;;;4969265;28;20054;-75
2023/02/28 02:40:10;;;;;;;3.50;1.15;;;-1.00;99.90;;;;;;4973605;28;20395;-75
2023/02/28 02:43:00;;;;;;;2.28;1.08;;;-1.00;99.90;;;;;;4955501;28;20094;-75
2023/02/28 02:45:59;;;;;;;1.67;1.37;;;-1.00;99.90;;;;;;4969391;28;20062;-75
2023/02/28 02:48:30;;;;;;;2.47;1.63;;;-1.00;99.90;;;;;;4952675;28;20429;-75
2023/02/28 02:51:02;;;;;;;4.20;1.25;;;-1.00;99.90;;;;;;4974707;28;20094;-75
2023/02/28 02:53:34;;;;;;;1.58;1.33;;;-1.00;99.90;;;;;;4964284;28;20030;-75
2023/02/28 02:56:02;;;;;;;1.00;0.63;;;-1.00;99.90;;;;;;4957770;28;20038;-75
2023/02/28 02:58:41;;;;;;;1.33;1.05;;;-1.00;99.90;;;;;;4964246;28;20479;-76
2023/02/28 03:01:15;;;;;;;0.80;0.70;;;-1.10;99.90;;;;;;4954697;28;20046;-75
2023/02/28 03:03:41;;;;;;;1.52;0.98;;;-1.10;99.90;;;;;;4962266;28;20027;-75
2023/02/28 03:06:08;;;;;;;1.52;1.05;;;-1.00;99.90;;;;;;4954076;28;20084;-75
2023/02/28 03:08:37;;;;;;;0.73;0.50;;;-1.00;99.90;;;;;;4963445;28;20081;-75
2023/02/28 03:11:12;;;;;;;3.53;1.42;;;-1.00;99.90;;;;;;4957061;28;20410;-75
2023/02/28 03:14:09;;;;;;;2.10;0.98;;;-1.00;99.90;;;;;;4974763;28;20033;-75
2023/02/28 03:17:51;;;;;;;1.95;1.42;;;-1.00;99.90;;;;;;4974463;28;20030;-75
2023/02/28 03:20:37;;;;;;;2.85;1.48;;;-0.90;99.90;;;;;;4914025;29;20139;-75
2023/02/28 03:23:16;;;;;;;2.28;1.33;;;-0.90;99.90;;;;;;4917931;29;20163;-75
2023/02/28 03:26:03;;;;;;;3.30;1.70;;;-0.80;99.90;;;;;;4913497;29;20043;-75
2023/02/28 03:28:54;;;;;;;4.93;1.45;;;-0.90;99.90;;;;;;4927470;29;20732;-76
2023/02/28 03:31:38;;;;;;;2.72;1.38;;;-1.00;99.90;;;;;;4921966;29;20040;-74
2023/02/28 03:34:34;;;;;;;2.15;1.13;;;-1.00;99.90;;;;;;4916736;29;20541;-74
2023/02/28 03:37:08;;;;;;;2.03;1.10;;;-1.00;99.90;;;;;;4914549;29;20058;-75
2023/02/28 03:39:41;;;;;;;4.15;1.60;;;-0.90;99.90;;;;;;4898716;29;20160;-75
2023/02/28 03:42:15;;;;;;;1.83;1.42;;;-0.90;99.90;;;;;;4924228;29;20408;-74
2023/02/28 03:44:56;;;;;;;2.67;1.30;;;-1.00;99.90;;;;;;4914862;29;20059;-75
2023/02/28 03:47:35;;;;;;;0.77;0.60;;;-1.00;99.90;;;;;;4922572;29;20200;-74
2023/02/28 03:50:13;;;;;;;3.33;2.03;;;-0.90;99.90;;;;;;4906599;28;20119;-75
2023/02/28 03:53:21;;;;;;;4.57;1.13;;;-0.90;99.90;;;;;;4965707;28;20061;-75
2023/02/28 03:56:01;;;;;;;2.25;1.42;;;-0.90;99.90;;;;;;4973745;28;20047;-75
2023/02/28 03:58:48;;;;;;;2.10;1.33;;;-0.90;99.90;;;;;;4956896;28;20073;-75
2023/02/28 04:01:23;;;;;;;6.25;1.85;;;-0.90;99.90;;;;;;4972506;28;20043;-75
2023/02/28 04:03:50;;;;;;;3.83;2.45;;;-0.90;99.90;;;;;;4951138;28;20394;-75
2023/02/28 04:06:22;;;;;;;5.10;1.48;;;-0.80;99.90;;;;;;4956596;28;20109;-74
2023/02/28 04:08:49;;;;;;;1.65;0.80;;;-0.80;99.90;;;;;;4956633;28;20398;-75
2023/02/28 04:11:22;;;;;;;2.28;1.38;;;-0.80;99.90;;;;;;4949556;29;20058;-75
2023/02/28 04:13:48;;;;;;;3.22;1.63;;;-0.90;99.90;;;;;;4937240;29;20035;-75
2023/02/28 04:16:14;;;;;;;25.17;2.03;;;-0.90;99.90;;;;;;4969029;28;20060;-75
2023/02/28 04:18:40;;;;;;;1.50;1.08;;;-1.00;99.90;;;;;;4958494;28;20121;-75
2023/02/28 04:21:06;;;;;;;7.72;1.23;;;-1.00;99.90;;;;;;4972952;28;20082;-75
2023/02/28 04:23:33;;;;;;;3.92;1.48;;;-1.00;99.90;;;;;;4962056;28;20035;-75
2023/02/28 04:25:59;;;;;;;3.97;2.13;;;-1.00;99.90;;;;;;4972926;28;20104;-75
2023/02/28 04:28:25;;;;;;;1.45;1.05;;;-1.00;99.90;;;;;;4973340;28;20074;-75
2023/02/28 04:31:01;;;;;;;3.45;1.77;;;-1.00;99.90;;;;;;4973315;28;20510;-75
2023/02/28 04:33:27;;;;;;;2.20;1.60;;;-1.00;99.90;;;;;;4959023;28;20376;-75
2023/02/28 04:36:08;;;;;;;2.05;1.30;;;-1.00;99.90;;;;;;4955651;28;20033;-75
2023/02/28 04:38:38;;;;;;;1.50;0.97;;;-1.10;99.90;;;;;;4950512;28;20146;-74
2023/02/28 04:41:05;;;;;;;3.90;1.90;;;-1.10;99.90;;;;;;4951800;28;20286;-75
2023/02/28 04:43:31;;;;;;;3.30;1.48;;;-1.10;99.90;;;;;;4935100;28;20050;-74
2023/02/28 04:46:01;;;;;;;1.08;0.77;;;-1.10;99.90;;;;;;4954013;28;20031;-74
2023/02/28 04:48:34;;;;;;;2.20;1.17;;;-1.20;99.90;;;;;;4959847;28;20137;-75
2023/02/28 04:51:02;;;;;;;1.95;1.02;;;-1.20;99.90;;;;;;4945319;28;20077;-73
2023/02/28 04:53:29;;;;;;;4.32;1.10;;;-1.10;99.90;;;;;;4971859;28;20030;-72
2023/02/28 04:55:57;;;;;;;1.75;1.48;;;-1.10;99.90;;;;;;4960198;28;20031;-71
2023/02/28 04:58:23;;;;;;;5.53;0.82;;;-1.00;99.90;;;;;;4960489;28;20034;-73
2023/02/28 05:00:51;;;;;;;1.88;1.13;;;-1.00;99.90;;;;;;4963113;28;20030;-72
2023/02/28 05:03:16;;;;;;;2.60;1.80;;;-0.90;99.90;;;;;;4971885;28;20041;-73
2023/02/28 05:05:42;;;;;;;4.85;3.05;;;-0.90;99.90;;;;;;4972243;28;20047;-73
2023/02/28 05:08:09;;;;;;;1.13;0.95;;;-0.90;99.90;;;;;;4972024;28;20035;-72
2023/02/28 05:10:35;;;;;;;2.67;1.50;;;-0.90;99.90;;;;;;4971866;28;20109;-73
2023/02/28 05:13:01;;;;;;;8.73;1.63;;;-0.90;99.90;;;;;;4954627;28;20035;-73
2023/02/28 05:15:27;;;;;;;6.93;1.45;;;-0.90;99.90;;;;;;4958063;28;20034;-73
2023/02/28 05:17:53;;;;;;;0.98;0.93;;;-0.80;99.90;;;;;;4954762;28;20027;-74
2023/02/28 05:20:19;;;;;;;6.80;2.33;;;-0.80;99.90;;;;;;4954702;28;20034;-73
2023/02/28 05:22:45;;;;;;;3.47;2.38;;;-0.70;99.90;;;;;;4954607;28;20046;-73
2023/02/28 05:25:18;;;;;;;1.45;0.93;;;-0.60;99.90;;;;;;4972136;28;20820;-73
2023/02/28 05:27:44;;;;;;;1.20;0.85;;;-0.50;99.90;;;;;;4954705;28;20113;-73
2023/02/28 05:30:11;;;;;;;1.88;1.33;;;-0.60;99.90;;;;;;4961805;28;20130;-71
2023/02/28 05:32:42;;;;;;;1.52;1.30;;;-0.50;99.90;;;;;;4955014;28;20038;-74
2023/02/28 05:35:11;;;;;;;;;;;-0.50;99.90;;;;;;4969740;28;20122;-73
2023/02/28 05:37:38;;;;;;;1.77;0.98;;;-0.50;99.90;;;;;;4972047;28;19921;-75
2023/02/28 05:40:07;;;;;;;0.88;0.65;;;-0.60;99.90;;;;;;4971068;28;20085;-73
2023/02/28 05:42:33;;;;;;;2.25;1.65;;;-0.60;99.90;;;;;;4972055;28;20098;-74
2023/02/28 05:44:59;;;;;;;2.55;1.45;;;-0.60;99.90;;;;;;4971023;28;20090;-76
2023/02/28 05:47:25;;;;;;;1.95;1.38;;;-0.50;99.90;;;;;;4961769;28;20042;-71
2023/02/28 05:49:50;;;;;;;2.40;2.20;;;-0.40;99.90;;;;;;4971649;28;20027;-75
2023/02/28 05:52:17;;;;;;;5.25;1.70;;;-0.60;99.90;;;;;;4973150;28;20030;-75
2023/02/28 05:54:43;;;;;;;2.53;1.60;;;-0.50;99.90;;;;;;4975528;28;20134;-74
2023/02/28 05:57:08;;;;;;;3.30;1.58;;;-0.50;99.90;;;;;;4963036;28;20566;-74
2023/02/28 05:59:34;;;;;;;0.85;0.82;;;-0.50;99.90;;;;;;4948163;28;20026;-75
2023/02/28 06:02:00;;;;;;;2.30;1.25;;;-0.40;99.90;;;;;;4980291;28;20038;-73
2023/02/28 06:04:26;;;;;;;4.70;1.48;;;-0.40;99.90;;;;;;4969253;28;20062;-74
2023/02/28 06:06:56;;;;;;;1.60;1.17;;;-0.40;99.90;;;;;;4972368;28;20050;-75
2023/02/28 06:09:22;;;;;;;2.40;1.10;;;-0.40;99.90;;;;;;4971927;28;20023;-75
2023/02/28 06:11:48;;;;;;;5.40;1.35;;;-0.40;99.90;;;;;;4969584;28;20302;-75
2023/02/28 06:14:17;;;;;;;2.30;1.23;;;-0.50;99.90;;;;;;4971370;28;20042;-75
2023/02/28 06:16:43;;;;;;;2.80;1.67;;;-0.50;99.90;;;;;;4964771;28;20780;-75
2023/02/28 06:19:09;;;;;;;2.83;1.38;;;-0.50;99.90;;;;;;4960251;28;20083;-76
2023/02/28 06:21:35;;;;;;;2.83;1.77;;;-0.40;99.90;;;;;;4970664;28;20026;-72
2023/02/28 06:24:01;;;;;;;1.95;1.33;;;-0.60;99.90;;;;;;4968989;28;20082;-73
2023/02/28 06:26:27;;;;;;;5.80;2.28;;;-0.50;99.90;;;;;;4955722;28;20026;-73
2023/02/28 06:28:53;;;;;;;6.15;1.55;;;-0.50;99.90;;;;;;4970395;28;20053;-73
2023/02/28 06:31:19;;;;;;;6.55;1.42;;;-0.60;99.90;;;;;;4967029;28;20566;-73
2023/02/28 06:33:46;;;;;;;2.95;1.33;;;-0.60;99.90;;;;;;4968528;28;20122;-73
2023/02/28 06:36:13;;;;;;;3.63;1.45;;;-0.60;99.90;;;;;;4970966;28;20410;-77
2023/02/28 06:38:40;;;;;;;0.75;0.68;;;-0.50;99.90;;;;;;4953000;28;20038;-76
2023/02/28 06:41:07;;;;;;;1.90;1.08;;;-0.50;99.90;;;;;;4970789;28;20046;-74
2023/02/28 06:43:40;;;;;;;3.45;2.28;;;-0.50;99.90;;;;;;4959274;28;20031;-73
2023/02/28 06:46:10;;;;;;;0.95;0.75;;;-0.40;99.90;;;;;;4957803;28;20102;-73
2023/02/28 06:48:35;;;;;;;4.95;2.05;;;-0.30;99.90;;;;;;4970392;28;20122;-73
2023/02/28 06:51:21;;;;;;;2.28;1.63;;;-0.20;99.90;;;;;;4953630;28;20560;-73
2023/02/28 06:53:48;;;;;;;3.72;1.67;;;-0.30;99.90;;;;;;4954818;28;20089;-74
2023/02/28 06:56:16;;;;;;;2.35;1.30;;;-0.40;99.90;;;;;;4970212;28;20110;-73
2023/02/28 06:58:46;;;;;;;2.97;1.67;;;-0.20;99.90;;;;;;4949183;28;20031;-72
2023/02/28 07:01:14;;;;;;;6.70;1.67;;;-0.10;99.90;;;;;;4970227;28;20487;-76
2023/02/28 07:03:40;;;;;;;3.78;2.05;;;0.00;99.90;;;;;;4962275;28;20560;-74
2023/02/28 07:06:06;;;;;;;5.22;2.88;;;0.00;99.90;;;;;;4987655;23;20046;-77
2023/02/28 07:08:34;;;;;;;4.93;2.50;;;0.10;99.90;;;;;;4990897;28;20072;-76
2023/02/28 07:11:00;;;;;;;3.63;2.38;;;0.10;99.90;;;;;;4985679;28;20030;-77
2023/02/28 07:13:26;;;;;;;17.63;5.38;;;0.20;99.90;;;;;;4989366;28;20034;-77
2023/02/28 07:16:08;;;;;;;5.13;2.75;;;0.30;99.90;;;;;;4986291;28;20027;-77
2023/02/28 07:18:35;;;;;;;3.33;1.92;;;0.40;99.90;;;;;;4989749;28;20031;-76
2023/02/28 07:21:07;;;;;;;4.10;2.30;;;0.50;99.90;;;;;;4984823;28;20033;-76
2023/02/28 07:23:33;;;;;;;4.65;1.55;;;0.60;99.90;;;;;;4980047;28;20050;-76
2023/02/28 07:25:59;;;;;;;3.25;1.70;;;0.70;99.90;;;;;;4989456;28;20035;-74
2023/02/28 07:28:26;;;;;;;3.53;1.88;;;0.80;99.90;;;;;;4994543;28;20030;-76
2023/02/28 07:30:51;;;;;;;6.15;2.58;;;0.70;99.90;;;;;;4980689;28;20367;-76
2023/02/28 07:33:17;;;;;;;5.03;2.05;;;0.90;99.90;;;;;;4993470;28;20129;-76
2023/02/28 07:35:43;;;;;;;3.40;2.10;;;0.80;99.90;;;;;;4991273;28;20462;-76
2023/02/28 07:38:09;;;;;;;3.20;1.73;;;1.00;99.90;;;;;;4989151;28;20039;-76
2023/02/28 07:40:36;;;;;;;2.30;1.50;;;1.00;99.90;;;;;;5003525;28;20041;-76
2023/02/28 07:43:03;;;;;;;2.25;1.20;;;1.00;99.90;;;;;;4991232;28;20038;-77
2023/02/28 07:45:31;;;;;;;3.33;2.55;;;1.10;99.90;;;;;;4993014;28;20433;-76
2023/02/28 07:47:57;;;;;;;4.75;1.85;;;1.20;99.90;;;;;;4990511;28;20035;-76
2023/02/28 07:50:23;;;;;;;13.55;3.80;;;1.30;99.90;;;;;;5007006;28;20026;-76
2023/02/28 07:52:49;;;;;;;8.20;2.03;;;1.50;99.90;;;;;;4992452;28;20085;-76
2023/02/28 07:55:16;;;;;;;3.65;2.75;;;1.50;99.90;;;;;;4993351;28;20038;-77
2023/02/28 07:57:42;;;;;;;3.63;1.33;;;1.60;99.90;;;;;;4992310;28;20723;-76
2023/02/28 08:00:11;;;;;;;8.15;2.72;;;1.40;99.90;;;;;;4992801;28;20042;-77
2023/02/28 08:02:37;;;;;;;9.32;2.05;;;1.60;99.90;;;;;;4985086;28;20486;-76
2023/02/28 08:05:03;;;;;;;3.03;1.30;;;1.50;99.90;;;;;;4993104;28;20045;-76
2023/02/28 08:07:28;;;;;;;3.58;1.88;;;1.70;99.90;;;;;;4985924;28;20042;-76
2023/02/28 08:09:54;;;;;;;2.70;1.80;;;1.70;99.90;;;;;;4988749;28;20027;-76
2023/02/28 08:12:20;;;;;;;14.13;2.03;;;1.50;99.90;;;;;;4992073;28;20104;-76
2023/02/28 08:14:46;;;;;;;6.18;1.70;;;1.40;99.90;;;;;;4993032;28;20120;-77
2023/02/28 08:17:12;;;;;;;3.80;1.52;;;1.50;99.90;;;;;;4989428;28;20049;-77
2023/02/28 08:19:38;;;;;;;8.20;2.13;;;1.50;99.90;;;;;;4999881;28;20080;-77
2023/02/28 08:22:04;;;;;;;2.10;1.63;;;1.50;99.90;;;;;;4995450;28;20026;-77
2023/02/28 08:24:30;;;;;;;3.95;1.17;;;1.60;99.90;;;;;;4992985;28;20030;-77
2023/02/28 08:26:56;;;;;;;5.43;2.80;;;1.60;99.90;;;;;;4989444;28;20034;-77
2023/02/28 08:29:22;;;;;;;2.55;1.85;;;1.50;99.90;;;;;;4992508;28;20091;-77
2023/02/28 08:31:48;;;;;;;9.05;2.08;;;1.60;99.90;;;;;;4987149;28;20046;-77
2023/02/28 08:34:16;;;;;;;7.25;2.42;;;1.70;99.90;;;;;;4983067;28;20387;-77
2023/02/28 08:36:44;;;;;;;5.00;1.65;;;1.70;99.90;;;;;;4989201;28;20054;-76
2023/02/28 08:39:10;;;;;;;1.85;1.60;;;1.80;99.90;;;;;;4991709;28;20078;-76
2023/02/28 08:41:36;;;;;;;2.30;1.60;;;1.80;99.90;;;;;;4991919;28;20656;-76
2023/02/28 08:44:02;;;;;;;7.20;1.95;;;1.90;99.90;;;;;;4992183;28;20062;-76
2023/02/28 08:46:28;;;;;;;2.33;1.40;;;2.00;99.90;;;;;;4991494;28;20026;-77
2023/02/28 08:48:59;;;;;;;4.53;2.67;;;2.20;99.90;;;;;;4993511;28;20034;-74
2023/02/28 08:51:26;;;;;;;2.20;1.35;;;2.20;99.90;;;;;;4999912;28;20386;-73
2023/02/28 08:54:01;;;;;;;6.57;2.80;;;2.10;99.90;;;;;;4969967;28;20109;-74
2023/02/28 08:56:28;;;;;;;6.18;2.95;;;2.30;99.90;;;;;;4985713;28;20030;-76
2023/02/28 08:58:56;;;;;;;5.82;2.25;;;2.40;99.90;;;;;;4992083;28;20034;-80
2023/02/28 09:01:28;;;;;;;4.32;1.65;;;2.30;99.90;;;;;;4991404;28;20030;-82
2023/02/28 09:03:55;;;;;;;5.75;3.03;;;2.40;99.90;;;;;;4991901;28;20498;-78
2023/02/28 09:06:24;;;;;;;2.80;1.70;;;2.50;99.90;;;;;;4974557;28;20065;-78
2023/02/28 09:08:51;;;;;;;5.25;2.83;;;2.50;99.90;;;;;;4982596;28;20070;-76
2023/02/28 09:11:18;;;;;;;2.75;1.95;;;2.70;99.90;;;;;;4988843;28;20038;-76
2023/02/28 09:13:45;;;;;;;11.38;2.75;;;2.80;99.90;;;;;;4991604;28;20403;-77
2023/02/28 09:16:15;;;;;;;7.63;3.05;;;3.00;99.90;;;;;;4988636;28;20397;-77
2023/02/28 09:18:42;;;;;;;24.00;3.22;;;3.00;99.90;;;;;;4982827;28;20030;-76
2023/02/28 09:21:13;;;;;;;6.32;2.58;;;3.10;99.90;;;;;;5002128;28;20023;-77
2023/02/28 09:23:44;;;;;;;6.78;2.15;;;3.00;99.90;;;;;;4991832;28;20497;-78
2023/02/28 09:26:22;;;;;;;4.07;2.33;;;3.10;99.90;;;;;;4988328;28;20038;-78
2023/02/28 09:28:48;;;;;;;3.92;1.25;;;3.30;99.60;;;;;;4991561;28;20445;-78
2023/02/28 09:31:20;;;;;;;5.28;2.63;;;3.40;99.50;;;;;;4988239;28;20068;-77
2023/02/28 09:33:51;;;;;;;1.70;1.42;;;3.30;99.30;;;;;;4991704;28;20042;-76
2023/02/28 09:36:18;;;;;;;17.25;3.60;;;3.40;99.00;;;;;;4985167;28;20114;-79
2023/02/28 09:38:46;;;;;;;7.50;2.33;;;3.60;98.40;;;;;;4991275;28;20120;-79
2023/02/28 09:41:25;;;;;;;3.70;2.45;;;3.80;98.40;;;;;;4988054;28;20026;-78
2023/02/28 09:44:02;;;;;;;3.53;1.50;;;3.90;97.80;;;;;;4982048;28;20039;-78
2023/02/28 09:46:40;;;;;;;9.75;2.15;;;3.90;97.60;;;;;;4986277;28;20042;-79
2023/02/28 09:49:12;;;;;;;6.78;3.33;;;3.90;97.70;;;;;;4947834;28;20096;-82
2023/02/28 09:52:03;;;;;;;7.63;2.33;;;3.90;97.20;;;;;;4978080;28;20061;-80
2023/02/28 09:54:32;;;;;;;3.13;2.35;;;4.00;97.70;;;;;;4977662;28;20088;-80
2023/02/28 09:57:04;;;;;;;6.85;2.92;;;4.00;97.50;;;;;;4988777;28;20040;-79
2023/02/28 10:00:13;;;;;;;4.75;2.05;;;4.30;97.20;;;;;;4990103;28;20034;-80
2023/02/28 10:03:03;;;;;;;5.15;2.25;;;4.50;96.60;;;;;;4986125;28;20113;-81
2023/02/28 10:05:47;;;;;;;5.45;2.42;;;4.70;96.80;;;;;;4984678;28;20410;-77
2023/02/28 10:08:32;;;;;;;4.82;1.98;;;4.70;96.30;;;;;;4973641;28;20046;-78
2023/02/28 10:11:04;;;;;;;2.30;1.63;;;4.60;96.20;;;;;;4981960;28;20117;-80
2023/02/28 10:13:55;;;;;;;8.90;1.70;;;4.70;95.90;;;;;;4988118;28;20077;-82
2023/02/28 10:16:29;;;;;;;;;;;5.00;95.70;;;;;;4984268;28;20033;-78
2023/02/28 10:19:22;;;;;;;3.28;1.83;;;5.10;95.50;;;;;;4985377;28;19910;-78
2023/02/28 10:22:09;;;;;;;10.55;2.47;;;4.90;95.40;;;;;;4982063;28;20439;-78
2023/02/28 10:24:46;;;;;;;5.50;2.60;;;5.20;95.30;;;;;;4975532;28;20022;-80
2023/02/28 10:27:25;;;;;;;3.50;2.25;;;5.50;95.30;;;;;;4990737;28;20042;-84
2023/02/28 10:29:54;;;;;;;3.35;2.10;;;5.80;94.30;;;;;;4983468;28;20379;-82
2023/02/28 10:32:35;;;;;;;8.48;2.85;;;5.30;94.10;;;;;;4985706;28;20387;-82
2023/02/28 10:35:19;;;;;;;6.70;2.85;;;5.70;94.50;;;;;;4983831;28;20034;-80
2023/02/28 10:37:49;;;;;;;6.53;1.83;;;6.00;94.00;;;;;;4990699;28;20041;-80
2023/02/28 10:40:17;;;;;;;2.88;1.70;;;6.30;93.40;;;;;;4982913;28;20085;-83
2023/02/28 10:43:01;;;;;;;7.30;2.78;;;6.70;93.30;;;;;;4990407;28;20514;-83
2023/02/28 10:45:35;;;;;;;5.45;2.60;;;6.20;93.30;;;;;;4977296;28;20038;-80
2023/02/28 10:48:15;;;;;;;6.15;2.60;;;6.80;92.50;;;;;;4989723;28;20379;-79
2023/02/28 10:50:49;;;;;;;3.90;2.15;;;6.60;92.60;;;;;;4991616;28;20546;-79
2023/02/28 10:53:26;;;;;;;5.05;2.63;;;7.00;91.60;;;;;;4987708;28;20042;-82
2023/02/28 10:56:06;;;;;;;9.27;2.50;;;7.00;91.90;;;;;;4987091;28;20039;-83
2023/02/28 10:58:56;;;;;;;5.03;2.03;;;6.80;91.60;;;;;;4985465;28;20035;-82
2023/02/28 11:01:35;;;;;;;4.32;2.13;;;7.30;91.60;;;;;;4986354;28;20473;-81
2023/02/28 11:04:01;;;;;;;4.68;2.22;;;6.60;91.60;;;;;;4993621;28;20042;-87
2023/02/28 11:09:30;;;;;;;5.50;2.72;;;7.30;91.20;;;;;;5102490;23;20068;-81
2023/02/28 11:11:56;;;;;;;10.90;4.07;;;8.10;90.40;;;;;;5004471;28;20116;-84
2023/02/28 11:14:31;;;;;;;3.42;1.85;;;8.90;87.80;;;;;;5012714;28;20030;-79
2023/02/28 11:17:22;;;;;;;4.47;2.15;;;8.90;86.70;;;;;;5000285;28;20037;-84
2023/02/28 11:19:57;;;;;;;4.95;2.58;;;9.20;85.00;;;;;;4978354;28;20401;-80
2023/02/28 11:22:31;;;;;;;5.53;2.60;;;10.00;83.30;;;;;;4985646;28;20031;-75
2023/02/28 11:25:07;;;;;;;7.05;2.40;;;8.80;82.90;;;;;;4984455;28;20125;-72
2023/02/28 11:27:33;;;;;;;5.35;2.50;;;9.00;83.20;;;;;;4986584;28;20042;-74
2023/02/28 11:30:00;;;;;;;6.45;2.35;;;10.50;81.10;;;;;;4993057;28;20105;-69
2023/02/28 11:32:30;;;;;;;5.07;2.30;;;12.00;76.70;;;;;;4985981;28;20030;-72
2023/02/28 11:35:34;;;;;;;4.22;2.35;;;11.30;77.10;;;;;;4993424;28;20034;-72
2023/02/28 11:38:01;;;;;;;5.30;2.20;;;12.60;72.00;;;;;;4998856;28;20481;-71
2023/02/28 11:40:57;;;;;;;3.97;2.17;;;11.80;71.60;;;;;;4993249;28;20454;-76
2023/02/28 11:43:33;;;;;;;3.97;2.35;;;13.40;70.80;;;;;;4977612;28;20045;-74
2023/02/28 11:46:44;;;;;;;5.82;2.55;;;12.60;66.80;;;;;;4984409;28;20089;-75
2023/02/28 11:49:35;;;;;;;4.93;1.85;;;11.40;71.10;;;;;;4988754;28;20133;-75
2023/02/28 11:52:39;;;;;;;5.05;2.22;;;13.20;68.10;;;;;;4993515;28;20184;-75
2023/02/28 11:55:26;;;;;;;4.45;2.13;;;12.70;68.40;;;;;;4992905;28;20034;-73
2023/02/28 11:58:32;;;;;;;3.72;2.00;;;12.50;67.20;;;;;;4989182;28;20041;-76
2023/02/28 12:01:44;;;;;;;4.68;2.30;;;14.80;64.00;;;;;;4990814;28;20038;-76
2023/02/28 12:04:21;;;;;;;4.78;2.45;;;15.10;62.60;;;;;;4992519;28;20398;-76
2023/02/28 12:06:57;;;;;;;7.22;2.95;;;14.10;61.50;;;;;;4992856;28;20038;-73
2023/02/28 12:10:09;;;;;;;4.38;2.00;;;11.90;63.00;;;;;;4992049;28;20023;-75
2023/02/28 12:12:51;;;;;;;3.20;1.90;;;11.10;66.40;;;;;;4969903;28;20092;-74
2023/02/28 12:15:31;;;;;;;5.85;2.80;;;11.00;68.40;;;;;;4970395;28;20057;-74
2023/02/28 12:18:00;;;;;;;5.55;2.47;;;11.20;66.40;;;;;;4991874;28;20046;-74
2023/02/28 12:20:42;;;;;;;6.07;2.83;;;10.20;67.00;;;;;;4988765;28;20042;-72
2023/02/28 12:23:50;;;;;;;10.13;2.33;;;9.50;69.50;;;;;;4984200;28;20398;-76
2023/02/28 12:26:41;;;;;;;4.28;1.95;;;10.00;70.40;;;;;;4991953;28;20037;-74
2023/02/28 12:29:29;;;;;;;4.20;2.58;;;11.90;66.80;;;;;;4979810;28;20030;-75
2023/02/28 12:32:47;;;;;;;5.20;2.63;;;11.60;65.40;;;;;;4990858;28;20534;-74
2023/02/28 12:35:19;;;;;;;3.35;2.20;;;10.90;65.50;;;;;;4984622;28;20498;-74
2023/02/28 12:38:23;;;;;;;6.55;2.45;;;11.00;66.10;;;;;;4978310;28;20208;-74
2023/02/28 12:41:26;;;;;;;3.22;2.05;;;9.60;68.00;;;;;;4989646;28;20065;-74
2023/02/28 12:44:03;;;;;;;4.43;2.40;;;11.50;65.00;;;;;;4992340;28;20042;-74
2023/02/28 12:47:00;;;;;;;3.78;2.22;;;10.00;68.00;;;;;;4990339;28;20459;-73
2023/02/28 12:50:01;;;;;;;7.32;2.95;;;10.30;68.30;;;;;;4974137;28;20501;-74
2023/02/28 12:53:04;;;;;;;4.57;3.08;;;12.00;67.20;;;;;;4984704;28;20049;-72
2023/02/28 12:55:56;;;;;;;5.38;2.50;;;9.30;68.80;;;;;;4985936;28;20042;-72
2023/02/28 12:58:48;;;;;;;4.15;2.20;;;10.50;69.10;;;;;;4955125;28;20061;-72
2023/02/28 13:02:37;;;;;;;8.13;2.75;;;12.80;65.00;;;;;;4991599;28;20109;-72
2023/02/28 13:05:46;;;;;;;4.28;2.65;;;13.80;63.80;;;;;;4947345;28;20174;-73
2023/02/28 13:08:47;;;;;;;7.47;3.75;;;13.00;62.40;;;;;;5000450;23;20417;-72
2023/02/28 13:11:30;;;;;;;;;;;11.30;64.40;;;;;;4978491;28;20109;-73
2023/02/28 13:14:16;;;;;;;5.03;2.45;;;11.50;66.90;;;;;;4979785;28;20289;-73
2023/02/28 13:17:14;;;;;;;5.97;2.30;;;13.50;64.00;;;;;;4981132;28;20053;-73
2023/02/28 13:19:57;;;;;;;5.07;2.45;;;11.80;65.30;;;;;;4964835;28;20097;-73
2023/02/28 13:22:25;;;;;;;3.72;2.10;;;11.30;64.90;;;;;;4953935;28;20390;-74
2023/02/28 13:24:58;;;;;;;5.22;2.63;;;11.50;64.50;;;;;;4968929;28;20035;-73
2023/02/28 13:27:34;;;;;;;5.22;3.10;;;10.50;65.40;;;;;;4963571;28;20033;-74
2023/02/28 13:30:02;;;;;;;5.50;2.60;;;10.70;67.50;;;;;;4962951;28;20026;-73
2023/02/28 13:32:36;;;;;;;4.60;2.65;;;10.30;67.90;;;;;;4954063;28;20018;-73